sensor_id;sensor_type;location;lat;lon;timestamp;pressure;altitude;pressure_sealevel;temperature;humidity
62458;BME280;48509;52.122;5.250;2023-03-22T00:02:59;100890.0;;;11.58;95.93
62458;BME280;48509;52.122;5.250;2023-03-22T00:04:35;100887.0;;;11.62;95.44
62458;BME280;48509;52.122;5.250;2023-03-22T00:06:11;100888.0;;;11.71;95.38
62458;BME280;48509;52.122;5.250;2023-03-22T00:09:24;100881.0;;;11.54;96.15
62458;BME280;48509;52.122;5.250;2023-03-22T00:11:01;100880.0;;;11.52;96.06
62458;BME280;48509;52.122;5.250;2023-03-22T00:12:37;100872.0;;;11.55;95.92
62458;BME280;48509;52.122;5.250;2023-03-22T00:15:50;100874.0;;;11.53;96.45
62458;BME280;48509;52.122;5.250;2023-03-22T00:17:26;100865.0;;;11.5;96.12
62458;BME280;48509;52.122;5.250;2023-03-22T00:19:02;100865.0;;;11.47;96.82
62458;BME280;48509;52.122;5.250;2023-03-22T00:20:45;100861.0;;;11.43;97.32
62458;BME280;48509;52.122;5.250;2023-03-22T00:23:59;100862.0;;;11.44;96.88
62458;BME280;48509;52.122;5.250;2023-03-22T00:25:36;100858.0;;;11.4;96.83
62458;BME280;48509;52.122;5.250;2023-03-22T00:27:12;100859.0;;;11.5;96.76
62458;BME280;48509;52.122;5.250;2023-03-22T00:30:24;100857.0;;;11.4;96.65
62458;BME280;48509;52.122;5.250;2023-03-22T00:32:00;100862.0;;;11.27;97.69
62458;BME280;48509;52.122;5.250;2023-03-22T00:33:37;100860.0;;;11.33;97.92
62458;BME280;48509;52.122;5.250;2023-03-22T00:35:13;100855.0;;;11.29;97.83
62458;BME280;48509;52.122;5.250;2023-03-22T00:38:27;100857.0;;;11.26;98.06
62458;BME280;48509;52.122;5.250;2023-03-22T00:40:04;100851.0;;;11.27;97.66
62458;BME280;48509;52.122;5.250;2023-03-22T00:41:41;100853.0;;;11.24;98.26
62458;BME280;48509;52.122;5.250;2023-03-22T00:44:53;100847.0;;;11.08;98.35
62458;BME280;48509;52.122;5.250;2023-03-22T00:46:29;100848.0;;;11.07;98.83
62458;BME280;48509;52.122;5.250;2023-03-22T00:48:06;100840.0;;;11.05;99.06
62458;BME280;48509;52.122;5.250;2023-03-22T00:51:19;100842.0;;;10.99;99.25
62458;BME280;48509;52.122;5.250;2023-03-22T00:52:55;100837.0;;;10.99;99.67
62458;BME280;48509;52.122;5.250;2023-03-22T00:54:31;100837.0;;;10.9;99.88
62458;BME280;48509;52.122;5.250;2023-03-22T00:56:07;100834.0;;;10.92;99.9
62458;BME280;48509;52.122;5.250;2023-03-22T00:59:20;100826.0;;;10.84;100.0
62458;BME280;48509;52.122;5.250;2023-03-22T01:00:57;100826.0;;;10.81;100.0
62458;BME280;48509;52.122;5.250;2023-03-22T01:02:33;100817.0;;;10.85;100.0
62458;BME280;48509;52.122;5.250;2023-03-22T01:05:46;100820.0;;;10.79;100.0
62458;BME280;48509;52.122;5.250;2023-03-22T01:07:23;100815.0;;;10.99;99.3
62458;BME280;48509;52.122;5.250;2023-03-22T01:09:00;100811.0;;;10.92;99.61
62458;BME280;48509;52.122;5.250;2023-03-22T01:12:15;100805.0;;;10.85;99.33
62458;BME280;48509;52.122;5.250;2023-03-22T01:13:55;100803.0;;;10.83;99.33
62458;BME280;48509;52.122;5.250;2023-03-22T01:15:31;100800.0;;;10.96;99.27
62458;BME280;48509;52.122;5.250;2023-03-22T01:17:08;100792.0;;;10.91;98.37
62458;BME280;48509;52.122;5.250;2023-03-22T01:20:22;100784.0;;;11.03;98.48
62458;BME280;48509;52.122;5.250;2023-03-22T01:21:58;100788.0;;;11.09;98.44
62458;BME280;48509;52.122;5.250;2023-03-22T01:23:36;100777.0;;;10.93;99.7
62458;BME280;48509;52.122;5.250;2023-03-22T01:26:50;100773.0;;;11.09;98.48
62458;BME280;48509;52.122;5.250;2023-03-22T01:28:26;100774.0;;;11.07;98.19
62458;BME280;48509;52.122;5.250;2023-03-22T01:30:02;100770.0;;;11.12;97.97
62458;BME280;48509;52.122;5.250;2023-03-22T01:31:39;100771.0;;;11.15;98.22
62458;BME280;48509;52.122;5.250;2023-03-22T01:34:52;100770.0;;;11.09;97.61
62458;BME280;48509;52.122;5.250;2023-03-22T01:36:28;100769.0;;;11.02;97.86
62458;BME280;48509;52.122;5.250;2023-03-22T01:38:06;100759.0;;;11.09;98.19
62458;BME280;48509;52.122;5.250;2023-03-22T01:41:18;100761.0;;;11.05;97.22
62458;BME280;48509;52.122;5.250;2023-03-22T01:42:54;100753.0;;;11.13;96.6
62458;BME280;48509;52.122;5.250;2023-03-22T01:44:31;100745.0;;;11.05;97.63
62458;BME280;48509;52.122;5.250;2023-03-22T01:47:46;100739.0;;;11.12;97.85
62458;BME280;48509;52.122;5.250;2023-03-22T01:49:28;100740.0;;;11.23;97.44
62458;BME280;48509;52.122;5.250;2023-03-22T01:51:09;100735.0;;;11.16;97.81
62458;BME280;48509;52.122;5.250;2023-03-22T01:52:47;100731.0;;;11.1;97.87
62458;BME280;48509;52.122;5.250;2023-03-22T01:56:09;100723.0;;;11.19;97.75
62458;BME280;48509;52.122;5.250;2023-03-22T01:57:47;100721.0;;;11.14;97.61
62458;BME280;48509;52.122;5.250;2023-03-22T01:59:25;100720.0;;;11.21;97.37
62458;BME280;48509;52.122;5.250;2023-03-22T02:01:04;100711.0;;;11.24;97.46
62458;BME280;48509;52.122;5.250;2023-03-22T02:04:20;100717.0;;;11.08;97.97
62458;BME280;48509;52.122;5.250;2023-03-22T02:05:58;100703.0;;;11.19;97.49
62458;BME280;48509;52.122;5.250;2023-03-22T02:07:35;100706.0;;;11.16;97.68
62458;BME280;48509;52.122;5.250;2023-03-22T02:10:51;100693.0;;;11.16;97.92
62458;BME280;48509;52.122;5.250;2023-03-22T02:12:32;100693.0;;;11.17;97.75
62458;BME280;48509;52.122;5.250;2023-03-22T02:14:32;100687.0;;;11.24;97.59
62458;BME280;48509;52.122;5.250;2023-03-22T02:16:29;100680.0;;;11.18;97.17
62458;BME280;48509;52.122;5.250;2023-03-22T02:18:22;100683.0;;;11.18;97.81
62458;BME280;48509;52.122;5.250;2023-03-22T02:22:12;100680.0;;;11.17;98.07
62458;BME280;48509;52.122;5.250;2023-03-22T02:24:17;100674.0;;;11.19;97.93
62458;BME280;48509;52.122;5.250;2023-03-22T02:27:51;100670.0;;;11.25;97.8
62458;BME280;48509;52.122;5.250;2023-03-22T02:31:58;100664.0;;;11.27;97.95
62458;BME280;48509;52.122;5.250;2023-03-22T02:34:05;100663.0;;;11.2;98.27
62458;BME280;48509;52.122;5.250;2023-03-22T02:37:37;100658.0;;;11.17;99.06
62458;BME280;48509;52.122;5.250;2023-03-22T02:40:59;100650.0;;;11.11;99.93
62458;BME280;48509;52.122;5.250;2023-03-22T02:44:39;100648.0;;;11.11;100.0
62458;BME280;48509;52.122;5.250;2023-03-22T02:46:22;100644.0;;;11.16;99.66
62458;BME280;48509;52.122;5.250;2023-03-22T02:48:05;100647.0;;;11.03;100.0
62458;BME280;48509;52.122;5.250;2023-03-22T02:49:46;100645.0;;;11.07;100.0
62458;BME280;48509;52.122;5.250;2023-03-22T02:51:32;100644.0;;;11.05;100.0
62458;BME280;48509;52.122;5.250;2023-03-22T02:54:55;100638.0;;;11.17;100.0
62458;BME280;48509;52.122;5.250;2023-03-22T02:56:39;100638.0;;;11.28;100.0
62458;BME280;48509;52.122;5.250;2023-03-22T02:58:22;100634.0;;;11.32;100.0
62458;BME280;48509;52.122;5.250;2023-03-22T03:00:03;100633.0;;;11.39;100.0
62458;BME280;48509;52.122;5.250;2023-03-22T03:01:44;100625.0;;;11.39;100.0
62458;BME280;48509;52.122;5.250;2023-03-22T03:05:03;100623.0;;;11.49;100.0
62458;BME280;48509;52.122;5.250;2023-03-22T03:06:42;100622.0;;;11.43;100.0
62458;BME280;48509;52.122;5.250;2023-03-22T03:08:20;100626.0;;;11.5;100.0
62458;BME280;48509;52.122;5.250;2023-03-22T03:09:58;100623.0;;;11.49;100.0
62458;BME280;48509;52.122;5.250;2023-03-22T03:13:11;100625.0;;;11.46;100.0
62458;BME280;48509;52.122;5.250;2023-03-22T03:14:49;100625.0;;;11.48;100.0
62458;BME280;48509;52.122;5.250;2023-03-22T03:16:28;100627.0;;;11.59;100.0
62458;BME280;48509;52.122;5.250;2023-03-22T03:20:09;100626.0;;;11.58;100.0
62458;BME280;48509;52.122;5.250;2023-03-22T03:21:56;100625.0;;;11.54;100.0
62458;BME280;48509;52.122;5.250;2023-03-22T03:23:43;100628.0;;;11.52;100.0
62458;BME280;48509;52.122;5.250;2023-03-22T03:25:26;100631.0;;;11.53;100.0
62458;BME280;48509;52.122;5.250;2023-03-22T03:27:12;100625.0;;;11.56;100.0
62458;BME280;48509;52.122;5.250;2023-03-22T03:28:55;100624.0;;;11.78;100.0
62458;BME280;48509;52.122;5.250;2023-03-22T03:32:22;100623.0;;;11.66;100.0
62458;BME280;48509;52.122;5.250;2023-03-22T03:34:08;100624.0;;;11.6;100.0
62458;BME280;48509;52.122;5.250;2023-03-22T03:35:51;100619.0;;;11.69;100.0
62458;BME280;48509;52.122;5.250;2023-03-22T03:37:34;100621.0;;;11.69;100.0
62458;BME280;48509;52.122;5.250;2023-03-22T03:40:53;100621.0;;;11.7;100.0
62458;BME280;48509;52.122;5.250;2023-03-22T03:42:32;100623.0;;;11.63;100.0
62458;BME280;48509;52.122;5.250;2023-03-22T03:44:12;100623.0;;;11.58;100.0
62458;BME280;48509;52.122;5.250;2023-03-22T03:45:50;100619.0;;;11.66;100.0
62458;BME280;48509;52.122;5.250;2023-03-22T03:49:05;100617.0;;;11.65;100.0
62458;BME280;48509;52.122;5.250;2023-03-22T03:50:43;100618.0;;;11.55;100.0
62458;BME280;48509;52.122;5.250;2023-03-22T03:52:20;100620.0;;;11.61;100.0
62458;BME280;48509;52.122;5.250;2023-03-22T03:53:56;100613.0;;;11.71;100.0
62458;BME280;48509;52.122;5.250;2023-03-22T03:57:08;100619.0;;;11.83;100.0
62458;BME280;48509;52.122;5.250;2023-03-22T03:58:44;100619.0;;;11.93;100.0
62458;BME280;48509;52.122;5.250;2023-03-22T04:00:20;100617.0;;;11.79;100.0
62458;BME280;48509;52.122;5.250;2023-03-22T04:03:34;100618.0;;;11.88;100.0
62458;BME280;48509;52.122;5.250;2023-03-22T04:05:11;100617.0;;;11.87;100.0
62458;BME280;48509;52.122;5.250;2023-03-22T04:06:48;100613.0;;;11.91;100.0
62458;BME280;48509;52.122;5.250;2023-03-22T04:10:00;100614.0;;;11.77;100.0
62458;BME280;48509;52.122;5.250;2023-03-22T04:11:36;100614.0;;;11.75;100.0
62458;BME280;48509;52.122;5.250;2023-03-22T04:13:12;100615.0;;;11.89;100.0
62458;BME280;48509;52.122;5.250;2023-03-22T04:16:24;100611.0;;;11.7;100.0
62458;BME280;48509;52.122;5.250;2023-03-22T04:18:01;100611.0;;;11.81;100.0
62458;BME280;48509;52.122;5.250;2023-03-22T04:19:37;100610.0;;;11.86;100.0
62458;BME280;48509;52.122;5.250;2023-03-22T04:21:13;100605.0;;;11.77;100.0
62458;BME280;48509;52.122;5.250;2023-03-22T04:24:25;100606.0;;;11.74;100.0
62458;BME280;48509;52.122;5.250;2023-03-22T04:26:02;100607.0;;;11.81;100.0
62458;BME280;48509;52.122;5.250;2023-03-22T04:27:41;100603.0;;;11.77;100.0
62458;BME280;48509;52.122;5.250;2023-03-22T04:30:54;100596.0;;;11.87;100.0
62458;BME280;48509;52.122;5.250;2023-03-22T04:32:31;100592.0;;;11.89;100.0
62458;BME280;48509;52.122;5.250;2023-03-22T04:34:07;100585.0;;;11.92;100.0
62458;BME280;48509;52.122;5.250;2023-03-22T04:37:20;100583.0;;;11.89;100.0
62458;BME280;48509;52.122;5.250;2023-03-22T04:38:56;100584.0;;;11.9;100.0
62458;BME280;48509;52.122;5.250;2023-03-22T04:40:32;100589.0;;;11.83;100.0
62458;BME280;48509;52.122;5.250;2023-03-22T04:42:09;100584.0;;;11.88;100.0
62458;BME280;48509;52.122;5.250;2023-03-22T04:45:22;100585.0;;;11.84;100.0
62458;BME280;48509;52.122;5.250;2023-03-22T04:46:59;100590.0;;;11.88;100.0
62458;BME280;48509;52.122;5.250;2023-03-22T04:48:35;100589.0;;;11.86;100.0
62458;BME280;48509;52.122;5.250;2023-03-22T04:51:48;100584.0;;;11.9;100.0
62458;BME280;48509;52.122;5.250;2023-03-22T04:53:24;100582.0;;;11.9;100.0
62458;BME280;48509;52.122;5.250;2023-03-22T04:55:01;100586.0;;;11.93;100.0
62458;BME280;48509;52.122;5.250;2023-03-22T04:58:13;100577.0;;;11.8;100.0
62458;BME280;48509;52.122;5.250;2023-03-22T04:59:49;100576.0;;;11.82;100.0
62458;BME280;48509;52.122;5.250;2023-03-22T05:01:25;100574.0;;;11.85;100.0
62458;BME280;48509;52.122;5.250;2023-03-22T05:03:02;100573.0;;;11.85;100.0
62458;BME280;48509;52.122;5.250;2023-03-22T05:06:14;100571.0;;;11.86;100.0
62458;BME280;48509;52.122;5.250;2023-03-22T05:07:51;100568.0;;;11.9;100.0
62458;BME280;48509;52.122;5.250;2023-03-22T05:09:27;100568.0;;;11.9;100.0
62458;BME280;48509;52.122;5.250;2023-03-22T05:12:42;100569.0;;;11.86;100.0
62458;BME280;48509;52.122;5.250;2023-03-22T05:14:18;100565.0;;;11.77;100.0
62458;BME280;48509;52.122;5.250;2023-03-22T05:15:54;100567.0;;;11.77;100.0
62458;BME280;48509;52.122;5.250;2023-03-22T05:19:07;100561.0;;;11.67;100.0
62458;BME280;48509;52.122;5.250;2023-03-22T05:20:43;100565.0;;;11.74;100.0
62458;BME280;48509;52.122;5.250;2023-03-22T05:22:19;100567.0;;;11.64;100.0
62458;BME280;48509;52.122;5.250;2023-03-22T05:23:56;100573.0;;;11.61;100.0
62458;BME280;48509;52.122;5.250;2023-03-22T05:27:08;100570.0;;;11.63;100.0
62458;BME280;48509;52.122;5.250;2023-03-22T05:28:44;100564.0;;;11.68;100.0
62458;BME280;48509;52.122;5.250;2023-03-22T05:30:20;100561.0;;;11.61;100.0
62458;BME280;48509;52.122;5.250;2023-03-22T05:33:33;100551.0;;;11.64;100.0
62458;BME280;48509;52.122;5.250;2023-03-22T05:35:09;100557.0;;;11.54;100.0
62458;BME280;48509;52.122;5.250;2023-03-22T05:36:46;100552.0;;;11.46;100.0
62458;BME280;48509;52.122;5.250;2023-03-22T05:39:59;100558.0;;;11.49;100.0
62458;BME280;48509;52.122;5.250;2023-03-22T05:41:34;100553.0;;;11.55;100.0
62458;BME280;48509;52.122;5.250;2023-03-22T05:43:11;100553.0;;;11.65;100.0
62458;BME280;48509;52.122;5.250;2023-03-22T05:44:47;100552.0;;;11.58;100.0
62458;BME280;48509;52.122;5.250;2023-03-22T05:47:58;100555.0;;;11.67;100.0
62458;BME280;48509;52.122;5.250;2023-03-22T05:49:35;100548.0;;;11.59;100.0
62458;BME280;48509;52.122;5.250;2023-03-22T05:51:13;100547.0;;;11.65;100.0
62458;BME280;48509;52.122;5.250;2023-03-22T05:54:25;100538.0;;;11.58;100.0
62458;BME280;48509;52.122;5.250;2023-03-22T05:56:01;100535.0;;;11.61;100.0
62458;BME280;48509;52.122;5.250;2023-03-22T05:57:38;100534.0;;;11.71;100.0
62458;BME280;48509;52.122;5.250;2023-03-22T06:00:51;100537.0;;;11.68;100.0
62458;BME280;48509;52.122;5.250;2023-03-22T06:02:27;100542.0;;;11.68;100.0
62458;BME280;48509;52.122;5.250;2023-03-22T06:04:03;100541.0;;;11.74;100.0
62458;BME280;48509;52.122;5.250;2023-03-22T06:07:16;100541.0;;;11.78;100.0
62458;BME280;48509;52.122;5.250;2023-03-22T06:08:52;100541.0;;;11.83;100.0
62458;BME280;48509;52.122;5.250;2023-03-22T06:10:28;100534.0;;;11.8;100.0
62458;BME280;48509;52.122;5.250;2023-03-22T06:12:05;100540.0;;;11.69;100.0
62458;BME280;48509;52.122;5.250;2023-03-22T06:15:18;100543.0;;;11.69;100.0
62458;BME280;48509;52.122;5.250;2023-03-22T06:16:54;100542.0;;;11.68;100.0
62458;BME280;48509;52.122;5.250;2023-03-22T06:18:30;100548.0;;;11.72;100.0
62458;BME280;48509;52.122;5.250;2023-03-22T06:21:46;100545.0;;;11.83;100.0
62458;BME280;48509;52.122;5.250;2023-03-22T06:23:23;100542.0;;;11.71;100.0
62458;BME280;48509;52.122;5.250;2023-03-22T06:24:59;100540.0;;;11.83;100.0
62458;BME280;48509;52.122;5.250;2023-03-22T06:28:12;100543.0;;;11.91;100.0
62458;BME280;48509;52.122;5.250;2023-03-22T06:29:48;100543.0;;;11.86;100.0
62458;BME280;48509;52.122;5.250;2023-03-22T06:31:23;100539.0;;;11.79;100.0
62458;BME280;48509;52.122;5.250;2023-03-22T06:33:00;100542.0;;;11.83;100.0
62458;BME280;48509;52.122;5.250;2023-03-22T06:36:12;100547.0;;;11.83;100.0
62458;BME280;48509;52.122;5.250;2023-03-22T06:37:48;100548.0;;;11.94;100.0
62458;BME280;48509;52.122;5.250;2023-03-22T06:39:25;100545.0;;;11.93;99.96
62458;BME280;48509;52.122;5.250;2023-03-22T06:42:37;100543.0;;;11.98;99.48
62458;BME280;48509;52.122;5.250;2023-03-22T06:44:13;100540.0;;;12.05;98.82
62458;BME280;48509;52.122;5.250;2023-03-22T06:45:50;100540.0;;;11.94;98.94
62458;BME280;48509;52.122;5.250;2023-03-22T06:49:03;100544.0;;;12.19;99.36
62458;BME280;48509;52.122;5.250;2023-03-22T06:50:40;100549.0;;;12.29;98.13
62458;BME280;48509;52.122;5.250;2023-03-22T06:52:16;100541.0;;;12.27;97.5
62458;BME280;48509;52.122;5.250;2023-03-22T06:53:52;100544.0;;;12.28;97.63
62458;BME280;48509;52.122;5.250;2023-03-22T06:57:04;100550.0;;;12.32;97.53
62458;BME280;48509;52.122;5.250;2023-03-22T06:58:40;100547.0;;;12.31;97.01
62458;BME280;48509;52.122;5.250;2023-03-22T07:00:17;100545.0;;;12.36;97.33
62458;BME280;48509;52.122;5.250;2023-03-22T07:03:30;100542.0;;;12.37;96.89
62458;BME280;48509;52.122;5.250;2023-03-22T07:05:07;100539.0;;;12.31;96.72
62458;BME280;48509;52.122;5.250;2023-03-22T07:06:43;100539.0;;;12.36;96.31
62458;BME280;48509;52.122;5.250;2023-03-22T07:09:56;100546.0;;;12.2;96.07
62458;BME280;48509;52.122;5.250;2023-03-22T07:11:32;100543.0;;;12.21;97.06
62458;BME280;48509;52.122;5.250;2023-03-22T07:13:08;100548.0;;;12.25;97.33
62458;BME280;48509;52.122;5.250;2023-03-22T07:14:44;100550.0;;;12.2;96.74
62458;BME280;48509;52.122;5.250;2023-03-22T07:17:56;100550.0;;;12.2;97.47
62458;BME280;48509;52.122;5.250;2023-03-22T07:19:33;100546.0;;;12.2;96.15
62458;BME280;48509;52.122;5.250;2023-03-22T07:21:09;100548.0;;;12.16;96.98
62458;BME280;48509;52.122;5.250;2023-03-22T07:24:20;100544.0;;;12.3;96.46
62458;BME280;48509;52.122;5.250;2023-03-22T07:25:56;100544.0;;;12.27;96.45
62458;BME280;48509;52.122;5.250;2023-03-22T07:27:32;100540.0;;;12.37;95.95
62458;BME280;48509;52.122;5.250;2023-03-22T07:30:45;100539.0;;;12.48;95.61
62458;BME280;48509;52.122;5.250;2023-03-22T07:32:21;100538.0;;;12.45;95.76
62458;BME280;48509;52.122;5.250;2023-03-22T07:33:57;100537.0;;;12.41;96.1
62458;BME280;48509;52.122;5.250;2023-03-22T07:37:10;100537.0;;;12.44;95.31
62458;BME280;48509;52.122;5.250;2023-03-22T07:38:46;100528.0;;;12.42;94.49
62458;BME280;48509;52.122;5.250;2023-03-22T07:40:23;100531.0;;;12.55;95.34
62458;BME280;48509;52.122;5.250;2023-03-22T07:41:59;100532.0;;;12.56;93.9
62458;BME280;48509;52.122;5.250;2023-03-22T07:45:12;100533.0;;;12.6;93.41
62458;BME280;48509;52.122;5.250;2023-03-22T07:46:48;100531.0;;;12.56;93.84
62458;BME280;48509;52.122;5.250;2023-03-22T07:48:24;100533.0;;;12.5;93.58
62458;BME280;48509;52.122;5.250;2023-03-22T07:51:37;100537.0;;;12.56;93.22
62458;BME280;48509;52.122;5.250;2023-03-22T07:53:14;100525.0;;;12.66;93.04
62458;BME280;48509;52.122;5.250;2023-03-22T07:54:50;100525.0;;;12.76;94.6
62458;BME280;48509;52.122;5.250;2023-03-22T07:58:02;100518.0;;;12.86;94.17
62458;BME280;48509;52.122;5.250;2023-03-22T07:59:39;100530.0;;;12.83;93.9
62458;BME280;48509;52.122;5.250;2023-03-22T08:01:15;100526.0;;;12.78;91.93
62458;BME280;48509;52.122;5.250;2023-03-22T08:02:51;100525.0;;;12.84;92.26
62458;BME280;48509;52.122;5.250;2023-03-22T08:06:04;100527.0;;;13.03;92.38
62458;BME280;48509;52.122;5.250;2023-03-22T08:07:43;100537.0;;;13.1;91.69
62458;BME280;48509;52.122;5.250;2023-03-22T08:09:19;100530.0;;;13.05;91.28
62458;BME280;48509;52.122;5.250;2023-03-22T08:12:31;100528.0;;;13.09;89.32
62458;BME280;48509;52.122;5.250;2023-03-22T08:14:07;100525.0;;;13.07;89.48
62458;BME280;48509;52.122;5.250;2023-03-22T08:15:44;100527.0;;;13.1;90.29
62458;BME280;48509;52.122;5.250;2023-03-22T08:18:57;100530.0;;;13.26;90.4
62458;BME280;48509;52.122;5.250;2023-03-22T08:20:33;100519.0;;;13.23;90.28
62458;BME280;48509;52.122;5.250;2023-03-22T08:22:09;100524.0;;;13.33;89.91
62458;BME280;48509;52.122;5.250;2023-03-22T08:25:21;100530.0;;;13.24;88.59
62458;BME280;48509;52.122;5.250;2023-03-22T08:26:57;100528.0;;;13.25;89.08
62458;BME280;48509;52.122;5.250;2023-03-22T08:28:33;100527.0;;;13.28;88.12
62458;BME280;48509;52.122;5.250;2023-03-22T08:30:11;100528.0;;;13.2;88.35
62458;BME280;48509;52.122;5.250;2023-03-22T08:33:23;100533.0;;;13.12;90.28
62458;BME280;48509;52.122;5.250;2023-03-22T08:34:59;100523.0;;;13.11;89.72
62458;BME280;48509;52.122;5.250;2023-03-22T08:36:36;100532.0;;;13.15;90.21
62458;BME280;48509;52.122;5.250;2023-03-22T08:39:49;100527.0;;;13.08;90.22
62458;BME280;48509;52.122;5.250;2023-03-22T08:41:26;100523.0;;;13.2;91.15
62458;BME280;48509;52.122;5.250;2023-03-22T08:43:02;100524.0;;;13.22;92.18
62458;BME280;48509;52.122;5.250;2023-03-22T08:46:15;100530.0;;;13.33;89.55
62458;BME280;48509;52.122;5.250;2023-03-22T08:47:51;100530.0;;;13.28;88.94
62458;BME280;48509;52.122;5.250;2023-03-22T08:49:27;100527.0;;;13.11;87.56
62458;BME280;48509;52.122;5.250;2023-03-22T08:51:04;100524.0;;;13.08;90.26
62458;BME280;48509;52.122;5.250;2023-03-22T08:54:17;100528.0;;;13.08;88.61
62458;BME280;48509;52.122;5.250;2023-03-22T08:55:53;100522.0;;;13.05;88.7
62458;BME280;48509;52.122;5.250;2023-03-22T08:57:29;100530.0;;;13.04;88.24
62458;BME280;48509;52.122;5.250;2023-03-22T09:00:43;100515.0;;;12.93;89.0
62458;BME280;48509;52.122;5.250;2023-03-22T09:02:19;100519.0;;;13.05;89.3
62458;BME280;48509;52.122;5.250;2023-03-22T09:03:55;100526.0;;;13.01;89.65
62458;BME280;48509;52.122;5.250;2023-03-22T09:07:08;100525.0;;;13.05;89.71
62458;BME280;48509;52.122;5.250;2023-03-22T09:08:44;100530.0;;;13.01;88.29
62458;BME280;48509;52.122;5.250;2023-03-22T09:10:20;100526.0;;;13.11;89.14
62458;BME280;48509;52.122;5.250;2023-03-22T09:11:56;100531.0;;;12.98;88.41
62458;BME280;48509;52.122;5.250;2023-03-22T09:15:09;100539.0;;;13.02;89.14
62458;BME280;48509;52.122;5.250;2023-03-22T09:16:46;100546.0;;;12.98;90.18
62458;BME280;48509;52.122;5.250;2023-03-22T09:18:23;100535.0;;;12.83;92.92
62458;BME280;48509;52.122;5.250;2023-03-22T09:21:36;100533.0;;;12.94;93.49
62458;BME280;48509;52.122;5.250;2023-03-22T09:23:13;100539.0;;;12.96;94.35
62458;BME280;48509;52.122;5.250;2023-03-22T09:24:49;100539.0;;;12.88;94.13
62458;BME280;48509;52.122;5.250;2023-03-22T09:28:02;100532.0;;;12.76;94.08
62458;BME280;48509;52.122;5.250;2023-03-22T09:29:39;100536.0;;;12.81;95.96
62458;BME280;48509;52.122;5.250;2023-03-22T09:31:16;100541.0;;;12.79;95.41
62458;BME280;48509;52.122;5.250;2023-03-22T09:32:52;100536.0;;;12.67;96.81
62458;BME280;48509;52.122;5.250;2023-03-22T09:36:06;100540.0;;;12.5;97.99
62458;BME280;48509;52.122;5.250;2023-03-22T09:37:42;100532.0;;;12.55;99.2
62458;BME280;48509;52.122;5.250;2023-03-22T09:39:18;100530.0;;;12.59;99.59
62458;BME280;48509;52.122;5.250;2023-03-22T09:42:38;100540.0;;;12.65;99.79
62458;BME280;48509;52.122;5.250;2023-03-22T09:44:21;100530.0;;;12.52;100.0
62458;BME280;48509;52.122;5.250;2023-03-22T09:46:02;100528.0;;;12.45;100.0
62458;BME280;48509;52.122;5.250;2023-03-22T09:47:46;100530.0;;;12.2;100.0
62458;BME280;48509;52.122;5.250;2023-03-22T09:51:20;100532.0;;;12.18;100.0
62458;BME280;48509;52.122;5.250;2023-03-22T09:52:59;100538.0;;;12.23;100.0
62458;BME280;48509;52.122;5.250;2023-03-22T09:54:36;100530.0;;;12.21;100.0
62458;BME280;48509;52.122;5.250;2023-03-22T09:56:19;100524.0;;;12.33;100.0
62458;BME280;48509;52.122;5.250;2023-03-22T09:58:01;100527.0;;;12.39;100.0
62458;BME280;48509;52.122;5.250;2023-03-22T10:01:30;100522.0;;;12.24;100.0
62458;BME280;48509;52.122;5.250;2023-03-22T10:03:18;100530.0;;;12.33;100.0
62458;BME280;48509;52.122;5.250;2023-03-22T10:05:07;100525.0;;;12.42;100.0
62458;BME280;48509;52.122;5.250;2023-03-22T10:06:49;100521.0;;;12.27;100.0
62458;BME280;48509;52.122;5.250;2023-03-22T10:08:37;100517.0;;;12.49;100.0
62458;BME280;48509;52.122;5.250;2023-03-22T10:12:02;100524.0;;;12.48;100.0
62458;BME280;48509;52.122;5.250;2023-03-22T10:13:52;100519.0;;;12.35;100.0
62458;BME280;48509;52.122;5.250;2023-03-22T10:15:35;100519.0;;;12.24;100.0
62458;BME280;48509;52.122;5.250;2023-03-22T10:17:15;100517.0;;;12.34;100.0
62458;BME280;48509;52.122;5.250;2023-03-22T10:18:57;100523.0;;;12.29;100.0
62458;BME280;48509;52.122;5.250;2023-03-22T10:22:24;100527.0;;;12.11;100.0
62458;BME280;48509;52.122;5.250;2023-03-22T10:24:08;100517.0;;;12.18;100.0
62458;BME280;48509;52.122;5.250;2023-03-22T10:25:51;100522.0;;;12.2;100.0
62458;BME280;48509;52.122;5.250;2023-03-22T10:27:29;100522.0;;;12.09;100.0
62458;BME280;48509;52.122;5.250;2023-03-22T10:30:52;100528.0;;;12.22;100.0
62458;BME280;48509;52.122;5.250;2023-03-22T10:32:35;100518.0;;;12.24;100.0
62458;BME280;48509;52.122;5.250;2023-03-22T10:34:19;100522.0;;;12.27;100.0
62458;BME280;48509;52.122;5.250;2023-03-22T10:35:57;100530.0;;;12.29;100.0
62458;BME280;48509;52.122;5.250;2023-03-22T10:39:24;100531.0;;;12.24;100.0
62458;BME280;48509;52.122;5.250;2023-03-22T10:41:08;100534.0;;;12.23;100.0
62458;BME280;48509;52.122;5.250;2023-03-22T10:42:50;100537.0;;;12.23;100.0
62458;BME280;48509;52.122;5.250;2023-03-22T10:44:31;100535.0;;;12.34;100.0
62458;BME280;48509;52.122;5.250;2023-03-22T10:46:14;100527.0;;;12.38;100.0
62458;BME280;48509;52.122;5.250;2023-03-22T10:49:37;100519.0;;;12.33;100.0
62458;BME280;48509;52.122;5.250;2023-03-22T10:51:22;100531.0;;;12.53;100.0
62458;BME280;48509;52.122;5.250;2023-03-22T10:53:04;100527.0;;;12.32;100.0
62458;BME280;48509;52.122;5.250;2023-03-22T10:54:42;100527.0;;;12.21;100.0
62458;BME280;48509;52.122;5.250;2023-03-22T10:57:59;100518.0;;;12.19;100.0
62458;BME280;48509;52.122;5.250;2023-03-22T10:59:46;100515.0;;;12.24;100.0
62458;BME280;48509;52.122;5.250;2023-03-22T11:01:26;100517.0;;;12.24;100.0
62458;BME280;48509;52.122;5.250;2023-03-22T11:03:05;100513.0;;;12.2;100.0
62458;BME280;48509;52.122;5.250;2023-03-22T11:06:24;100501.0;;;12.22;100.0
62458;BME280;48509;52.122;5.250;2023-03-22T11:08:02;100498.0;;;12.33;100.0
62458;BME280;48509;52.122;5.250;2023-03-22T11:09:38;100506.0;;;12.3;100.0
62458;BME280;48509;52.122;5.250;2023-03-22T11:11:18;100511.0;;;12.46;100.0
62458;BME280;48509;52.122;5.250;2023-03-22T11:14:49;100509.0;;;12.44;100.0
62458;BME280;48509;52.122;5.250;2023-03-22T11:16:27;100513.0;;;12.59;100.0